EBOS/OST METAR and TAF weather

Enter ICAO airport designator
Station Type Date Time Source
EBOS METAR 2018/10/16 21:20 UTC NOAA

EBOS 162120Z 27008KT CAVOK 15/13 Q1018 NOSIG


Station Type Date Time Source
EBOS Decoded METAR 2018/10/16 21:20 UTC NOAA

Oostende Airport , Belgium (EBOS) 51-12N 002-52E 5M
Oct 16, 2018 - 05:20 PM EDT / 2018.10.16 2120 UTC
Wind: from the W (270 degrees) at 9 MPH (8 KT):0
Visibility: greater than 7 mile(s):0
Temperature: 59 F (15 C)
Dew Point: 55 F (13 C)
Relative Humidity: 87%
Pressure (altimeter): 30.06 in. Hg (1018 hPa)
ob: EBOS 162120Z 27008KT CAVOK 15/13 Q1018 NOSIG
cycle: 21

Station Type Date Time Source
EBOS TAF 2018/10/16 18:27 UTC NOAA

TAF EBOS 161710Z 1618/1724 26008KT CAVOK
TEMPO 1702/1708 2000 BR MIFG PROB30
TEMPO 1702/1708 BKN003


Example: see airport list